Time;durP1;ratioP1;P1;durP2;ratioP2;P2;SDS_P1;SDS_P2;PMS_P1;PMS_P2;Temp;Humidity;BMP_temperature;BMP_pressure;BME280_temperature;BME280_humidity;BME280_pressure;Samples;Min_cycle;Max_cycle;Signal;HPM_P1;HPM_P2
2023/01/17 00:11:15;;;;;;;12.77;6.93;;;4.20;99.90;;;;;;2614341;54;22116;-71
2023/01/17 00:17:03;;;;;;;7.33;6.17;;;4.10;99.90;;;;;;2614589;54;20133;-70
2023/01/17 01:42:34;;;;;;;4.93;3.57;;;3.40;99.90;;;;;;2612656;54;20487;-70
2023/01/17 01:48:35;;;;;;;4.80;3.87;;;3.40;99.90;;;;;;2613227;31;20737;-70
2023/01/17 01:54:28;;;;;;;8.30;4.60;;;3.50;99.90;;;;;;2612314;54;20387;-70
2023/01/17 02:00:22;;;;;;;9.50;4.70;;;3.40;99.90;;;;;;2612811;54;20423;-71
2023/01/17 02:12:55;;;;;;;5.27;3.40;;;2.90;99.90;;;;;;2613881;54;20447;-71
2023/01/17 02:15:58;;;;;;;8.60;3.83;;;2.90;99.90;;;;;;2614772;54;20453;-70
2023/01/17 02:32:44;;;;;;;14.20;6.60;;;2.90;99.90;;;;;;2612849;54;20407;-72
2023/01/17 02:36:08;;;;;;;9.73;7.60;;;2.90;99.90;;;;;;2612563;54;20435;-71
2023/01/17 02:45:08;;;;;;;2.70;2.00;;;2.40;99.90;;;;;;2613528;54;20376;-71
2023/01/17 03:04:20;;;;;;;2.83;1.80;;;1.00;99.90;;;;;;2614195;39;20610;-73
2023/01/17 03:10:10;;;;;;;2.70;1.87;;;1.00;99.90;;;;;;2613678;54;20363;-73
2023/01/17 03:15:57;;;;;;;3.23;2.47;;;1.00;99.90;;;;;;2614632;54;20399;-75
2023/01/17 03:21:45;;;;;;;3.07;2.03;;;1.00;99.90;;;;;;2613497;39;20855;-75
2023/01/17 03:27:33;;;;;;;5.77;3.07;;;1.10;99.90;;;;;;2614775;54;20656;-76
2023/01/17 03:33:21;;;;;;;6.77;2.80;;;1.20;99.90;;;;;;2613305;54;20167;-76
2023/01/17 03:36:05;;;;;;;6.67;3.63;;;1.30;99.90;;;;;;2615193;39;20773;-76
2023/01/17 03:38:31;;;;;;;6.03;3.47;;;1.40;99.90;;;;;;2614345;54;20174;-78
2023/01/17 03:44:19;;;;;;;6.37;4.13;;;1.40;99.90;;;;;;2614721;54;20150;-74
2023/01/17 03:50:08;;;;;;;4.73;3.63;;;1.50;99.90;;;;;;2614011;54;20664;-74
2023/01/17 03:55:55;;;;;;;5.97;3.57;;;1.50;99.90;;;;;;2615406;54;20378;-72
2023/01/17 04:01:43;;;;;;;7.13;4.33;;;1.60;99.90;;;;;;2614551;54;20656;-72
2023/01/17 04:07:31;;;;;;;5.50;3.37;;;1.70;99.90;;;;;;2614961;54;20126;-71
2023/01/17 04:13:22;;;;;;;3.27;1.80;;;1.80;99.90;;;;;;2615436;54;20150;-72
2023/01/17 04:19:12;;;;;;;5.20;3.40;;;1.80;99.90;;;;;;2614858;54;20534;-71
2023/01/17 04:25:00;;;;;;;4.73;3.30;;;1.80;99.90;;;;;;2614184;54;20419;-71
2023/01/17 04:30:47;;;;;;;6.67;4.00;;;1.80;99.90;;;;;;2615249;54;20154;-73
2023/01/17 04:40:41;;;;;;;8.90;4.10;;;2.00;99.90;;;;;;2614623;54;21211;-72
2023/01/17 04:46:28;;;;;;;7.57;3.77;;;2.10;99.90;;;;;;2615475;39;20884;-71
2023/01/17 04:52:18;;;;;;;10.53;5.30;;;2.10;99.90;;;;;;2611936;54;20151;-70
2023/01/17 04:58:05;;;;;;;8.03;4.30;;;2.20;99.90;;;;;;2615827;39;20760;-71
2023/01/17 05:03:53;;;;;;;9.93;7.53;;;2.10;99.90;;;;;;2612852;54;21012;-71
2023/01/17 05:09:42;;;;;;;7.87;5.60;;;2.00;99.90;;;;;;2613872;39;20877;-72
2023/01/17 05:12:08;;;;;;;10.50;6.27;;;2.00;99.90;;;;;;2613721;39;20875;-72
2023/01/17 05:14:34;;;;;;;10.77;4.83;;;2.00;99.90;;;;;;2614867;54;20431;-71
2023/01/17 05:20:24;;;;;;;8.23;6.00;;;2.10;99.90;;;;;;2612205;54;20403;-71
2023/01/17 05:26:11;;;;;;;8.43;5.77;;;2.00;99.90;;;;;;2614688;54;20383;-71
2023/01/17 05:31:59;;;;;;;14.50;6.37;;;2.00;99.90;;;;;;2613951;54;20142;-72
2023/01/17 05:41:09;;;;;;;9.07;4.43;;;2.00;99.90;;;;;;2614381;54;20432;-71
2023/01/17 05:46:57;;;;;;;8.20;5.73;;;1.90;99.90;;;;;;2613961;54;20243;-71
2023/01/17 05:59:14;;;;;;;9.47;4.17;;;1.90;99.90;;;;;;2612756;54;20932;-72
2023/01/17 06:05:02;;;;;;;10.83;4.70;;;1.90;99.90;;;;;;2613082;54;20214;-72
2023/01/17 06:10:50;;;;;;;11.83;3.53;;;1.90;99.90;;;;;;2613348;54;20474;-73
2023/01/17 06:16:37;;;;;;;9.00;5.77;;;1.90;99.90;;;;;;2613150;54;20250;-73
2023/01/17 06:22:24;;;;;;;6.33;4.17;;;1.80;99.90;;;;;;2611674;39;20556;-71
2023/01/17 06:28:14;;;;;;;9.03;5.97;;;1.90;99.90;;;;;;2612377;54;20698;-71
2023/01/17 06:34:02;;;;;;;13.30;6.13;;;1.90;99.90;;;;;;2612748;54;20391;-71
2023/01/17 06:36:40;;;;;;;12.40;7.60;;;1.90;99.90;;;;;;2613364;54;20434;-72
2023/01/17 06:39:06;;;;;;;15.13;7.97;;;1.90;99.90;;;;;;2612600;39;20806;-71
2023/01/17 06:44:53;;;;;;;13.60;8.90;;;2.00;99.90;;;;;;2613398;54;20671;-72
2023/01/17 06:50:42;;;;;;;13.73;8.67;;;2.00;99.90;;;;;;2614250;54;20133;-72
2023/01/17 06:56:31;;;;;;;13.67;8.40;;;2.10;99.90;;;;;;2613647;54;20917;-73
2023/01/17 07:02:18;;;;;;;22.97;12.67;;;2.00;99.90;;;;;;2614547;54;20415;-73
2023/01/17 07:08:06;;;;;;;17.87;10.60;;;2.00;99.90;;;;;;2613739;54;20169;-71
2023/01/17 07:14:01;;;;;;;26.57;12.87;;;2.00;99.90;;;;;;2610658;54;20181;-73
2023/01/17 07:19:49;;;;;;;19.33;12.67;;;2.10;99.90;;;;;;2613578;54;20134;-72
2023/01/17 07:25:36;;;;;;;25.40;14.20;;;2.00;99.90;;;;;;2614994;54;20165;-72
2023/01/17 07:31:24;;;;;;;28.33;13.90;;;2.10;99.90;;;;;;2614361;54;20134;-72
2023/01/17 07:41:11;;;;;;;31.50;14.53;;;2.10;99.90;;;;;;2614079;54;20374;-73
2023/01/17 07:46:59;;;;;;;21.80;13.53;;;2.10;99.90;;;;;;2613216;54;20943;-73
2023/01/17 07:52:50;;;;;;;29.90;15.50;;;2.10;99.90;;;;;;2615384;54;20130;-72
2023/01/17 07:58:37;;;;;;;23.57;15.10;;;2.10;99.90;;;;;;2612857;54;20383;-72
2023/01/17 08:04:26;;;;;;;26.77;15.60;;;2.10;99.90;;;;;;2615914;54;20143;-72
2023/01/17 08:10:16;;;;;;;15.20;10.90;;;2.20;99.90;;;;;;2614224;54;20981;-73
2023/01/17 08:16:04;;;;;;;26.00;15.60;;;2.20;99.90;;;;;;2615531;54;20395;-71
2023/01/17 08:21:52;;;;;;;35.83;19.30;;;2.30;99.90;;;;;;2616252;54;20470;-72
2023/01/17 08:27:40;;;;;;;30.37;15.90;;;2.40;99.90;;;;;;2614778;54;20251;-73
2023/01/17 08:33:28;;;;;;;26.47;17.57;;;2.40;99.90;;;;;;2614364;54;20130;-72
2023/01/17 08:36:41;;;;;;;18.63;12.20;;;2.40;99.90;;;;;;2614698;54;20407;-72
2023/01/17 08:39:08;;;;;;;22.43;13.23;;;2.30;99.90;;;;;;2614413;47;20159;-71
2023/01/17 08:44:56;;;;;;;35.83;21.40;;;2.20;99.90;;;;;;2613760;54;20489;-72
2023/01/17 08:50:45;;;;;;;23.80;12.37;;;2.20;99.90;;;;;;2613818;54;20951;-73
2023/01/17 08:56:33;;;;;;;28.00;17.20;;;2.20;99.90;;;;;;2614532;54;20398;-72
2023/01/17 09:02:22;;;;;;;33.70;18.03;;;2.30;99.90;;;;;;2614563;54;20475;-72
2023/01/17 09:08:10;;;;;;;21.47;14.07;;;2.40;99.90;;;;;;2614476;54;20386;-72
2023/01/17 09:13:58;;;;;;;35.03;21.50;;;2.40;99.90;;;;;;2615455;54;20134;-72
2023/01/17 09:19:47;;;;;;;43.03;24.10;;;2.30;99.90;;;;;;2615494;39;21040;-71
2023/01/17 09:25:35;;;;;;;34.03;18.67;;;2.30;99.90;;;;;;2615063;54;20386;-72
2023/01/17 09:31:23;;;;;;;27.87;17.67;;;2.40;99.90;;;;;;2614547;54;20161;-71
2023/01/17 09:41:11;;;;;;;25.93;17.40;;;3.00;99.90;;;;;;2614834;54;20395;-72
2023/01/17 09:53:36;;;;;;;26.83;19.13;;;3.50;99.90;;;;;;2615080;54;20382;-72
2023/01/17 09:59:27;;;;;;;28.20;16.80;;;3.60;99.90;;;;;;2615128;54;20370;-72
2023/01/17 10:05:37;;;;;;;24.63;16.27;;;8.80;99.90;;;;;;2613825;54;20389;-74
2023/01/17 10:18:21;;;;;;;16.53;13.50;;;9.70;55.80;;;;;;2612148;54;20387;-72
2023/01/17 10:30:50;;;;;;;15.70;14.03;;;11.80;32.20;;;;;;2612555;54;20383;-72
2023/01/17 10:36:41;;;;;;;14.07;10.90;;;9.20;36.00;;;;;;2612292;54;21023;-73
2023/01/17 10:49:02;;;;;;;18.23;10.27;;;7.80;44.20;;;;;;2614597;54;20419;-71
2023/01/17 11:01:27;;;;;;;22.23;11.00;;;8.90;68.10;;;;;;2614959;54;21068;-71
2023/01/17 11:13:46;;;;;;;11.47;8.93;;;12.40;18.50;;;;;;2614984;39;20793;-72
2023/01/17 11:19:35;;;;;;;11.83;10.20;;;12.30;20.50;;;;;;2614151;54;20402;-72
2023/01/17 11:25:23;;;;;;;13.27;9.73;;;11.30;18.60;;;;;;2614812;39;20855;-72
2023/01/17 11:31:15;;;;;;;11.30;10.20;;;13.40;19.10;;;;;;2614301;54;20400;-72
2023/01/17 11:57:30;;;;;;;22.63;9.40;;;6.90;44.60;;;;;;2614707;54;20384;-71
2023/01/17 12:29:28;;;;;;;13.10;10.10;;;5.90;66.20;;;;;;2614676;54;20423;-71
2023/01/17 12:44:51;;;;;;;13.90;10.03;;;5.40;94.50;;;;;;2615072;54;20402;-72
2023/01/17 12:50:43;;;;;;;17.73;9.40;;;5.60;91.10;;;;;;2615796;54;20391;-73
2023/01/17 13:09:36;;;;;;;12.40;10.17;;;11.50;20.90;;;;;;2615386;31;20922;-72
2023/01/17 13:15:45;;;;;;;13.30;12.10;;;11.20;23.30;;;;;;2613516;54;21323;-72
2023/01/17 13:21:34;;;;;;;11.70;10.10;;;6.70;37.00;;;;;;2614073;54;20387;-72
2023/01/17 13:34:00;;;;;;;16.30;10.80;;;6.10;46.20;;;;;;2611980;54;20391;-71
2023/01/17 13:46:17;;;;;;;15.10;11.37;;;5.60;76.90;;;;;;2611145;54;21604;-71
2023/01/17 13:59:00;;;;;;;11.80;10.47;;;10.60;22.00;;;;;;2611350;54;20952;-71
2023/01/17 14:05:14;;;;;;;11.10;10.00;;;8.00;43.30;;;;;;2613946;54;20391;-72
2023/01/17 14:11:06;;;;;;;18.90;11.37;;;11.70;22.10;;;;;;2613633;54;20374;-71
2023/01/17 14:30:47;;;;;;;12.17;11.03;;;10.20;15.30;;;;;;2613693;54;20427;-70
2023/01/17 14:36:36;;;;;;;10.03;8.90;;;10.00;16.20;;;;;;2615359;54;20444;-71
2023/01/17 14:40:00;;;;;;;19.03;9.43;;;9.40;18.80;;;;;;2612716;47;20438;-71
2023/01/17 14:42:28;;;;;;;12.03;11.00;;;8.30;24.30;;;;;;2615340;54;20435;-71
2023/01/17 14:48:21;;;;;;;11.27;10.33;;;7.70;24.90;;;;;;2614893;54;20394;-71
2023/01/17 14:54:20;;;;;;;10.63;9.63;;;6.90;30.00;;;;;;2615034;39;21083;-72
2023/01/17 15:06:40;;;;;;;13.53;10.43;;;4.80;71.60;;;;;;2613926;54;20981;-71
2023/01/17 15:12:27;;;;;;;11.03;9.90;;;4.50;90.40;;;;;;2614498;54;20512;-72
2023/01/17 15:18:18;;;;;;;11.47;8.70;;;4.20;98.60;;;;;;2614142;39;20855;-73
2023/01/17 15:35:01;;;;;;;10.40;9.37;;;3.70;99.90;;;;;;2614699;54;21012;-72
2023/01/17 15:44:34;;;;;;;16.23;8.60;;;3.20;99.90;;;;;;2616014;54;20426;-70
2023/01/17 15:50:28;;;;;;;10.60;9.43;;;2.90;99.90;;;;;;2615822;54;20433;-72
2023/01/17 15:56:25;;;;;;;12.13;10.77;;;2.60;99.90;;;;;;2615487;54;20408;-71
2023/01/17 16:15:17;;;;;;;11.83;7.37;;;1.50;99.90;;;;;;2614732;54;20379;-72
2023/01/17 16:27:40;;;;;;;12.27;8.93;;;1.20;99.90;;;;;;2615983;46;20848;-72
2023/01/17 16:33:28;;;;;;;16.27;9.60;;;0.90;99.90;;;;;;2613712;54;20422;-72
2023/01/17 16:35:53;;;;;;;15.23;9.10;;;0.80;99.90;;;;;;2613462;54;20404;-72
2023/01/17 16:38:19;;;;;;;9.20;8.20;;;0.70;99.90;;;;;;2613499;54;20154;-73
2023/01/17 16:41:22;;;;;;;13.53;9.30;;;0.80;99.90;;;;;;2614573;39;20604;-73
2023/01/17 16:47:34;;;;;;;13.23;8.90;;;0.80;99.90;;;;;;2613973;39;20809;-72
2023/01/17 16:53:25;;;;;;;14.47;9.30;;;0.90;99.90;;;;;;2615233;39;20839;-71
2023/01/17 16:59:12;;;;;;;15.13;10.37;;;0.40;99.90;;;;;;2615526;54;20387;-72
2023/01/17 17:05:00;;;;;;;13.80;10.10;;;0.20;99.90;;;;;;2616040;54;20150;-72
2023/01/17 17:10:48;;;;;;;15.03;11.53;;;0.00;99.90;;;;;;2615498;54;20197;-72
2023/01/17 17:16:37;;;;;;;25.90;11.93;;;-0.10;99.90;;;;;;2616054;54;21235;-72
2023/01/17 17:22:25;;;;;;;19.03;12.37;;;-0.20;99.90;;;;;;2616134;54;20386;-72
2023/01/17 17:28:13;;;;;;;22.73;13.60;;;0.00;99.90;;;;;;2614972;54;20167;-73
2023/01/17 17:34:02;;;;;;;20.30;15.63;;;-0.30;99.90;;;;;;2616186;54;20664;-71
2023/01/17 17:39:50;;;;;;;22.43;12.90;;;-0.40;99.90;;;;;;2615813;54;20510;-70
2023/01/17 17:43:04;;;;;;;20.43;15.40;;;-0.40;99.90;;;;;;2615746;39;21267;-71
2023/01/17 17:45:29;;;;;;;23.40;15.13;;;-0.40;99.90;;;;;;2616513;39;20572;-72
2023/01/17 17:57:46;;;;;;;20.70;14.07;;;-0.10;99.90;;;;;;2615573;54;20921;-72
2023/01/17 18:03:34;;;;;;;19.13;14.33;;;-0.50;99.90;;;;;;2615566;54;20180;-72
2023/01/17 18:09:22;;;;;;;25.80;13.97;;;-0.70;99.90;;;;;;2614397;54;20174;-72
2023/01/17 18:15:10;;;;;;;18.20;12.83;;;-0.70;99.90;;;;;;2614644;54;20155;-71
2023/01/17 18:21:06;;;;;;;25.73;19.20;;;-0.80;99.90;;;;;;2613591;54;20419;-72
2023/01/17 18:24:09;;;;;;;31.77;18.87;;;-0.50;99.90;;;;;;2613666;54;20430;-72
2023/01/17 18:26:38;;;;;;;32.63;21.47;;;-0.30;99.90;;;;;;2614244;46;20410;-72
2023/01/17 18:32:25;;;;;;;54.40;32.23;;;-0.40;99.90;;;;;;2613858;54;20391;-71
2023/01/17 18:38:13;;;;;;;45.67;25.10;;;-0.70;99.90;;;;;;2614799;39;20539;-72
2023/01/17 18:47:36;;;;;;;26.10;17.70;;;-1.00;99.90;;;;;;2613301;54;22753;-72
2023/01/17 18:53:25;;;;;;;23.10;15.50;;;-0.80;99.90;;;;;;2614746;54;20390;-72
2023/01/17 18:59:13;;;;;;;20.00;15.20;;;-0.90;99.90;;;;;;2614841;54;20387;-71
2023/01/17 19:05:04;;;;;;;26.00;15.50;;;-1.20;99.90;;;;;;2612990;54;20414;-71
2023/01/17 19:10:53;;;;;;;19.00;14.43;;;-1.30;99.90;;;;;;2614618;54;20398;-72
2023/01/17 19:16:41;;;;;;;23.63;13.40;;;-1.50;99.90;;;;;;2616408;39;20756;-71
2023/01/17 19:22:29;;;;;;;24.00;15.50;;;-1.50;99.90;;;;;;2614265;54;20410;-72
2023/01/17 19:28:16;;;;;;;29.27;16.73;;;-1.60;99.90;;;;;;2616416;54;20130;-72
2023/01/17 19:34:04;;;;;;;29.07;17.03;;;-1.60;99.90;;;;;;2616356;54;20122;-71
2023/01/17 19:39:52;;;;;;;20.87;15.10;;;-1.60;99.90;;;;;;2615907;54;20131;-73
2023/01/17 19:43:04;;;;;;;25.60;17.10;;;-1.60;99.90;;;;;;2615583;54;20427;-71
2023/01/17 19:45:29;;;;;;;36.53;18.63;;;-1.40;99.90;;;;;;2616507;54;20640;-72
2023/01/17 19:51:17;;;;;;;26.23;18.07;;;-1.60;99.90;;;;;;2616824;54;20122;-72
2023/01/17 19:57:04;;;;;;;24.27;15.80;;;-1.30;99.90;;;;;;2615935;54;20166;-73
2023/01/17 20:02:52;;;;;;;25.20;17.10;;;-1.40;99.90;;;;;;2615382;54;20166;-72
2023/01/17 20:08:40;;;;;;;33.80;21.40;;;-1.30;99.90;;;;;;2615649;54;20934;-73
2023/01/17 20:14:28;;;;;;;34.33;19.97;;;-1.40;99.90;;;;;;2615914;54;20403;-71
2023/01/17 20:20:16;;;;;;;37.17;22.90;;;-1.60;99.90;;;;;;2614825;54;20154;-72
2023/01/17 20:26:04;;;;;;;35.83;20.97;;;-1.70;99.90;;;;;;2615646;39;20757;-72
2023/01/17 20:31:52;;;;;;;27.13;18.53;;;-1.60;99.90;;;;;;2615064;54;20422;-72
2023/01/17 20:37:40;;;;;;;39.07;20.47;;;-1.40;99.90;;;;;;2615443;54;20138;-71
2023/01/17 20:53:45;;;;;;;26.53;19.00;;;-1.40;99.90;;;;;;2614499;54;20387;-72
2023/01/17 20:59:32;;;;;;;35.50;20.50;;;-1.80;99.90;;;;;;2614518;54;20374;-70
2023/01/17 21:05:19;;;;;;;25.20;19.50;;;-1.90;99.90;;;;;;2613576;54;20195;-72
2023/01/17 21:11:09;;;;;;;25.20;17.43;;;-1.70;99.90;;;;;;2614401;54;20707;-72
2023/01/17 21:16:56;;;;;;;33.17;20.00;;;-1.70;99.90;;;;;;2611668;54;20412;-74
2023/01/17 21:22:43;;;;;;;27.13;18.80;;;-1.40;99.90;;;;;;2610208;54;20152;-69
2023/01/17 21:28:34;;;;;;;33.13;22.43;;;-1.40;99.90;;;;;;2611613;54;20129;-73
2023/01/17 21:34:22;;;;;;;50.10;30.07;;;-1.40;99.90;;;;;;2614080;54;20395;-71
2023/01/17 21:40:09;;;;;;;32.53;20.80;;;-1.50;99.90;;;;;;2612254;54;20254;-72
2023/01/17 21:43:04;;;;;;;33.83;22.50;;;-1.50;99.90;;;;;;2613390;54;20411;-71
2023/01/17 21:45:33;;;;;;;26.10;19.10;;;-1.50;99.90;;;;;;2612486;54;20407;-72
2023/01/17 21:51:21;;;;;;;25.87;17.40;;;-1.70;99.90;;;;;;2614692;54;20495;-71
2023/01/17 22:03:16;;;;;;;33.03;18.97;;;-2.10;99.90;;;;;;2612923;54;20386;-72
2023/01/17 22:09:04;;;;;;;28.30;18.30;;;-2.30;99.90;;;;;;2613656;54;20178;-72
2023/01/17 22:14:52;;;;;;;25.03;17.43;;;-2.00;99.90;;;;;;2612996;54;20434;-71
2023/01/17 22:20:40;;;;;;;21.47;17.43;;;-1.90;99.90;;;;;;2614630;54;20431;-71
2023/01/17 22:26:30;;;;;;;30.23;17.90;;;-2.40;99.90;;;;;;2612024;54;20470;-71
2023/01/17 22:32:17;;;;;;;27.80;21.93;;;-2.10;99.90;;;;;;2615309;39;20800;-72
2023/01/17 22:38:05;;;;;;;30.07;20.20;;;-2.20;99.90;;;;;;2615840;39;20547;-72
2023/01/17 22:47:37;;;;;;;30.40;18.47;;;-2.20;99.90;;;;;;2612670;54;20414;-72
2023/01/17 22:53:25;;;;;;;56.60;21.27;;;-2.40;99.90;;;;;;2614739;54;20363;-72
2023/01/17 22:59:13;;;;;;;36.80;21.97;;;-2.10;99.90;;;;;;2612257;54;20177;-73
2023/01/17 23:05:00;;;;;;;32.67;22.80;;;-2.20;99.90;;;;;;2614483;54;20412;-70
2023/01/17 23:23:03;;;;;;;28.97;17.43;;;-2.40;99.90;;;;;;2615558;54;20920;-71
2023/01/17 23:28:50;;;;;;;27.83;18.43;;;-2.80;99.90;;;;;;2613047;54;20279;-71
2023/01/17 23:34:38;;;;;;;35.10;17.27;;;-3.00;99.90;;;;;;2613509;39;20210;-71
2023/01/17 23:40:26;;;;;;;23.67;17.07;;;-2.90;99.90;;;;;;2612670;54;20130;-71
2023/01/17 23:45:53;;;;;;;25.77;18.10;;;-2.70;99.90;;;;;;2612910;54;20182;-72
2023/01/17 23:51:40;;;;;;;22.83;17.27;;;-2.30;99.90;;;;;;2616376;54;20390;-71
2023/01/17 23:57:28;;;;;;;22.73;16.50;;;-2.90;99.90;;;;;;2613765;54;20235;-71
